CheckWX is a tool to help pilots better visualize weather data.  It is not intended as a substitute for an official pre-flight weather briefing.

22:28:46 UTC

RCSS TAF
Taipei Songshan Airport
Taipei City, Taiwan
TAF RCSS 311700Z 3118/0118 29005KT 8000 FEW012 BKN020 TEMPO 3118/3124 4000 SHRA FEW008 BKN012 BECMG 0100/0102 10010KT FEW015 BKN032 BECMG 0110/0112 09005KT

Mar-31@
18:00 UTC

Mar-31 @ 18:00 UTC

Apr-1@
00:00 UTC

Apr-1 @ 00:00 UTC

TAF RCSS 311700Z 3118/0118 29005KT 8000 FEW012 BKN020
Wind
  • 290° at 5 KTS
Cloud Levels
  • Few at 1,200' AGL
  • Broken at 2,000' AGL

Mar-31@
18:00 UTC

Mar-31 @ 18:00 UTC

Apr-1@
00:00 UTC

Apr-1 @ 00:00 UTC

TEMPO 3118/3124 4000 SHRA FEW008 BKN012

Temporary

Temporary Changes expected for less than half the time period

Conditions
Showers, Rain
Cloud Levels
  • Few at 800' AGL
  • Broken at 1,200' AGL

Apr-1@
00:00 UTC

Apr-1 @ 00:00 UTC

Apr-1@
10:00 UTC

Apr-1 @ 10:00 UTC

BECMG 0100/0102 10010KT FEW015 BKN032

Becoming

Becoming Conditions expected by Wed, Apr 1, 2020 @ 02:00 UTC

Wind
  • 100° at 10 KTS
Cloud Levels
  • Few at 1,500' AGL
  • Broken at 3,200' AGL

Apr-1@
10:00 UTC

Apr-1 @ 10:00 UTC

Apr-1@
18:00 UTC

Apr-1 @ 18:00 UTC

BECMG 0110/0112 09005KT

Becoming

Becoming Conditions expected by Wed, Apr 1, 2020 @ 12:00 UTC

Wind
  • 090° at 5 KTS
Cloud Levels
  • Few at 1,500' AGL
  • Broken at 3,200' AGL